Terminal Aerodrome Forecast
Issued by NWS

Home | Current Version | Previous Version | Text Only | Print | Product List | Glossary On
Versions: 1 2 3 4 5 6 7 8 9 10 11 12 13 14 15 16 17
000
FTUS45 KABQ 200500
TAFAEG
TAF
KAEG 200538Z 2006/2106 VRB06KT P6SM SCT050 BKN100
     FM201500 15006KT P6SM SCT060 SCT130
     FM201900 13010KT P6SM VCTS BKN070CB BKN130
      AMD NOT SKED=

USA.gov is the U.S. government's official web portal to all federal, state and local government web resources and services.